Time;durP1;ratioP1;P1;durP2;ratioP2;P2;SDS_P1;SDS_P2;PMS_P1;PMS_P2;Temp;Humidity;BMP_temperature;BMP_pressure;BME280_temperature;BME280_humidity;BME280_pressure;Samples;Min_cycle;Max_cycle;Signal;HPM_P1;HPM_P2
2022/01/02 00:02:27;;;;;;;14.77;6.55;;;11.10;99.90;;;;;;6158808;23;20029;-85
2022/01/02 00:05:02;;;;;;;13.05;6.50;;;11.10;99.90;;;;;;6185776;23;20017;-84
2022/01/02 00:07:31;;;;;;;14.80;6.50;;;11.20;99.90;;;;;;6184497;23;20025;-85
2022/01/02 00:10:04;;;;;;;13.20;6.75;;;11.20;99.90;;;;;;6184239;23;20499;-85
2022/01/02 00:12:33;;;;;;;17.02;7.15;;;11.10;99.90;;;;;;6159606;23;20021;-85
2022/01/02 00:15:04;;;;;;;18.10;7.60;;;11.10;99.90;;;;;;6159266;23;20021;-85
2022/01/02 00:17:31;;;;;;;15.23;7.15;;;11.10;99.90;;;;;;6134068;23;20663;-86
2022/01/02 00:20:02;;;;;;;12.93;6.80;;;11.10;99.90;;;;;;6183749;23;20342;-85
2022/01/02 00:22:35;;;;;;;15.10;6.47;;;11.10;99.90;;;;;;6138122;23;20416;-85
2022/01/02 00:25:06;;;;;;;15.38;6.25;;;11.10;99.90;;;;;;6191065;23;20029;-85
2022/01/02 00:27:43;;;;;;;13.95;6.40;;;11.10;99.90;;;;;;6143337;23;20029;-85
2022/01/02 00:30:09;;;;;;;15.55;6.57;;;11.10;99.90;;;;;;6189058;23;20017;-85
2022/01/02 00:32:37;;;;;;;14.55;6.75;;;11.10;99.90;;;;;;6158346;23;20029;-84
2022/01/02 00:35:13;;;;;;;12.57;6.80;;;11.10;99.90;;;;;;6138884;23;20460;-85
2022/01/02 00:37:40;;;;;;;14.40;6.63;;;11.00;99.90;;;;;;6158452;23;20056;-85
2022/01/02 00:40:06;;;;;;;13.77;7.03;;;11.00;99.90;;;;;;6183794;23;20056;-85
2022/01/02 00:42:39;;;;;;;20.50;7.25;;;11.00;99.90;;;;;;6158656;23;20141;-85
2022/01/02 00:45:12;;;;;;;14.73;6.85;;;11.00;99.90;;;;;;6158642;23;20091;-85
2022/01/02 00:47:44;;;;;;;14.52;7.00;;;11.00;99.90;;;;;;6158869;23;20420;-84
2022/01/02 00:50:31;;;;;;;12.10;6.72;;;11.00;99.90;;;;;;6185478;23;20318;-85
2022/01/02 00:53:01;;;;;;;14.77;7.35;;;11.00;99.90;;;;;;6137869;23;20934;-85
2022/01/02 00:55:32;;;;;;;14.55;7.03;;;10.90;99.90;;;;;;6185149;23;20078;-84
2022/01/02 00:58:02;;;;;;;11.15;6.65;;;10.90;99.90;;;;;;6139440;23;20033;-85
2022/01/02 01:00:30;;;;;;;15.55;7.00;;;10.90;99.90;;;;;;6158573;23;20090;-84
2022/01/02 01:02:59;;;;;;;13.07;6.65;;;10.90;99.90;;;;;;6158673;23;20025;-85
2022/01/02 01:05:36;;;;;;;12.38;6.47;;;10.90;99.90;;;;;;6091677;23;20021;-85
2022/01/02 01:08:05;;;;;;;27.77;8.27;;;10.90;99.90;;;;;;6160471;23;20512;-84
2022/01/02 01:10:36;;;;;;;18.33;7.03;;;10.90;99.90;;;;;;6139858;23;20021;-84
2022/01/02 01:13:05;;;;;;;15.90;6.95;;;10.90;99.90;;;;;;6167816;23;20025;-84
2022/01/02 01:15:32;;;;;;;13.60;5.90;;;10.90;99.90;;;;;;6162590;23;20021;-85
2022/01/02 01:18:00;;;;;;;14.88;6.50;;;10.90;99.90;;;;;;6158678;23;20021;-85
2022/01/02 01:20:30;;;;;;;17.35;7.93;;;10.80;99.90;;;;;;6178231;23;20335;-86
2022/01/02 01:22:56;;;;;;;18.70;6.80;;;10.80;99.90;;;;;;6153384;23;20072;-85
2022/01/02 01:25:23;;;;;;;17.77;7.45;;;10.80;99.90;;;;;;6153502;23;20029;-84
2022/01/02 01:27:54;;;;;;;19.42;7.47;;;10.80;99.90;;;;;;6153983;23;20076;-86
2022/01/02 01:30:23;;;;;;;12.68;6.53;;;10.80;99.90;;;;;;6154248;23;20453;-86
2022/01/02 01:32:49;;;;;;;20.83;8.02;;;10.80;99.90;;;;;;6157699;23;20021;-84
2022/01/02 01:35:15;;;;;;;16.70;7.47;;;10.80;99.90;;;;;;6156074;23;20032;-85
2022/01/02 01:37:41;;;;;;;18.88;7.45;;;10.80;99.90;;;;;;6128827;23;20029;-85
2022/01/02 01:40:11;;;;;;;21.15;7.70;;;10.80;99.90;;;;;;6128233;23;20032;-85
2022/01/02 01:42:41;;;;;;;21.27;9.27;;;10.80;99.90;;;;;;6152853;23;20049;-85
2022/01/02 01:47:54;;;;;;;16.38;8.07;;;10.80;99.90;;;;;;6129886;23;20061;-84
2022/01/02 01:50:40;;;;;;;18.00;7.85;;;10.70;99.90;;;;;;6144888;23;20033;-85
2022/01/02 01:53:07;;;;;;;20.15;8.27;;;10.70;99.90;;;;;;6136313;23;20060;-85
2022/01/02 01:55:35;;;;;;;18.35;7.75;;;10.70;99.90;;;;;;6137116;23;20021;-84
2022/01/02 01:58:02;;;;;;;16.67;8.77;;;10.70;99.90;;;;;;6162520;23;20089;-85
2022/01/02 02:00:29;;;;;;;22.77;8.60;;;10.70;99.90;;;;;;6136382;23;20033;-85
2022/01/02 02:02:56;;;;;;;18.85;9.23;;;10.70;99.90;;;;;;6157762;23;20028;-85
2022/01/02 02:05:22;;;;;;;18.92;8.52;;;10.70;99.90;;;;;;6178316;23;20496;-85
2022/01/02 02:07:48;;;;;;;23.65;9.63;;;10.70;99.90;;;;;;6128826;23;20026;-85
2022/01/02 02:10:18;;;;;;;20.20;8.43;;;10.70;99.90;;;;;;6128466;23;20450;-84
2022/01/02 02:13:03;;;;;;;16.50;8.27;;;10.70;99.90;;;;;;6154925;23;20096;-85
2022/01/02 02:15:28;;;;;;;20.73;8.55;;;10.70;99.90;;;;;;6152899;23;20028;-85
2022/01/02 02:17:54;;;;;;;20.23;8.13;;;10.70;99.90;;;;;;6152525;23;20021;-85
2022/01/02 02:20:25;;;;;;;17.92;9.35;;;10.70;99.90;;;;;;6128156;23;20064;-84
2022/01/02 02:23:07;;;;;;;20.55;9.65;;;10.70;99.90;;;;;;6154842;23;20033;-85
2022/01/02 02:25:38;;;;;;;20.95;9.43;;;10.70;99.90;;;;;;6128896;23;20021;-84
2022/01/02 02:28:10;;;;;;;22.08;9.45;;;10.70;99.90;;;;;;6128942;23;20018;-84
2022/01/02 02:30:38;;;;;;;21.10;11.00;;;10.70;99.90;;;;;;6130204;23;20036;-84
2022/01/02 02:33:06;;;;;;;21.52;9.45;;;10.70;99.90;;;;;;6153156;23;20505;-84
2022/01/02 02:35:33;;;;;;;20.02;10.35;;;10.70;99.90;;;;;;6179076;23;20036;-84
2022/01/02 02:38:00;;;;;;;19.15;10.23;;;10.70;99.90;;;;;;6138686;23;20022;-84
2022/01/02 02:40:28;;;;;;;23.50;10.18;;;10.70;99.90;;;;;;6158684;23;20029;-85
2022/01/02 02:43:02;;;;;;;21.10;9.88;;;10.70;99.90;;;;;;6154790;23;20025;-85
2022/01/02 02:51:19;;;;;;;20.48;11.30;;;10.70;99.90;;;;;;6177769;23;20026;-84
2022/01/02 02:53:47;;;;;;;22.02;11.98;;;10.60;99.90;;;;;;6151821;23;20026;-85
2022/01/02 02:56:25;;;;;;;22.10;11.65;;;10.60;99.90;;;;;;6153507;23;20033;-83
2022/01/02 02:58:56;;;;;;;25.65;12.23;;;10.60;99.90;;;;;;6155652;23;20022;-84
2022/01/02 03:01:23;;;;;;;26.55;12.77;;;10.60;99.90;;;;;;6154851;23;20092;-83
2022/01/02 03:03:50;;;;;;;23.90;12.23;;;10.60;99.90;;;;;;6154381;23;20032;-82
2022/01/02 03:06:17;;;;;;;27.95;13.85;;;10.50;99.90;;;;;;6152812;23;20022;-83
2022/01/02 03:08:46;;;;;;;26.38;13.93;;;10.50;99.90;;;;;;6152650;23;20474;-82
2022/01/02 03:11:15;;;;;;;24.10;13.77;;;10.50;99.90;;;;;;6128460;23;20014;-82
2022/01/02 03:13:42;;;;;;;26.92;13.65;;;10.40;99.90;;;;;;6152775;23;20119;-83
2022/01/02 03:16:08;;;;;;;30.45;14.55;;;10.40;99.90;;;;;;6152611;23;20115;-82
2022/01/02 03:18:35;;;;;;;31.38;13.85;;;10.40;99.90;;;;;;6157732;23;20025;-84
2022/01/02 03:21:01;;;;;;;24.85;13.68;;;10.40;99.90;;;;;;6189728;23;20147;-83
2022/01/02 03:23:27;;;;;;;29.05;14.93;;;10.40;99.90;;;;;;6184302;23;20074;-83
2022/01/02 03:25:53;;;;;;;30.48;14.48;;;10.40;99.90;;;;;;6135670;23;20117;-83
2022/01/02 03:28:19;;;;;;;23.75;13.15;;;10.40;99.90;;;;;;6134492;23;20461;-84
2022/01/02 03:30:51;;;;;;;24.33;12.88;;;10.40;99.90;;;;;;6108283;23;20021;-83
2022/01/02 03:33:17;;;;;;;24.63;13.65;;;10.40;99.90;;;;;;6182382;23;20119;-84
2022/01/02 03:35:43;;;;;;;25.88;13.88;;;10.40;99.90;;;;;;6157590;23;20110;-83
2022/01/02 03:38:10;;;;;;;25.38;14.00;;;10.30;99.90;;;;;;6158050;23;20047;-83
2022/01/02 03:40:38;;;;;;;22.75;13.13;;;10.40;99.90;;;;;;6157487;23;20021;-83
2022/01/02 03:43:06;;;;;;;23.48;12.65;;;10.30;99.90;;;;;;6184051;23;20099;-83
2022/01/02 03:45:32;;;;;;;22.50;13.77;;;10.30;99.90;;;;;;6181871;23;20032;-83
2022/01/02 03:48:00;;;;;;;22.10;13.57;;;10.30;99.90;;;;;;6158368;23;20025;-84
2022/01/02 03:50:26;;;;;;;26.35;14.23;;;10.30;99.90;;;;;;6158007;23;20074;-83
2022/01/02 03:52:52;;;;;;;31.55;16.38;;;10.30;99.90;;;;;;6184411;23;20032;-84
2022/01/02 03:55:18;;;;;;;24.00;15.75;;;10.30;99.90;;;;;;6158543;23;20025;-82
2022/01/02 03:57:45;;;;;;;31.65;14.95;;;10.30;99.90;;;;;;6158630;23;20028;-82
2022/01/02 04:00:14;;;;;;;27.15;14.32;;;10.30;99.90;;;;;;6184311;23;20104;-84
2022/01/02 04:02:40;;;;;;;30.17;15.65;;;10.30;99.90;;;;;;6160082;23;20742;-83
2022/01/02 04:05:07;;;;;;;34.55;16.42;;;10.30;99.90;;;;;;6189364;23;20056;-83
2022/01/02 04:07:33;;;;;;;30.65;16.42;;;10.30;99.90;;;;;;6141922;23;20032;-83
2022/01/02 04:10:04;;;;;;;35.25;16.60;;;10.30;99.90;;;;;;6164822;23;20451;-83
2022/01/02 04:12:30;;;;;;;36.30;16.13;;;10.30;99.90;;;;;;6158350;23;20060;-83
2022/01/02 04:14:56;;;;;;;30.35;17.13;;;10.30;99.90;;;;;;6135025;23;20029;-84
2022/01/02 04:17:23;;;;;;;35.75;18.00;;;10.30;99.90;;;;;;6135087;23;20527;-83
2022/01/02 04:19:50;;;;;;;32.25;16.17;;;10.30;99.90;;;;;;6184064;23;20489;-84
2022/01/02 04:22:17;;;;;;;27.75;16.15;;;10.30;99.90;;;;;;6159139;23;20352;-84
2022/01/02 04:24:43;;;;;;;34.72;16.88;;;10.30;99.90;;;;;;6185678;23;20025;-84
2022/01/02 04:27:08;;;;;;;33.75;15.50;;;10.30;99.90;;;;;;6134612;23;20017;-83
2022/01/02 04:29:34;;;;;;;31.60;15.25;;;10.30;99.90;;;;;;6158909;23;20025;-84
2022/01/02 04:32:00;;;;;;;29.63;16.50;;;10.30;99.90;;;;;;6158810;23;20021;-84
2022/01/02 04:34:32;;;;;;;35.45;17.75;;;10.30;99.90;;;;;;6157920;23;20029;-83
2022/01/02 04:36:57;;;;;;;27.05;15.27;;;10.30;99.90;;;;;;6156224;23;20027;-84
2022/01/02 04:39:23;;;;;;;32.53;15.63;;;10.30;99.90;;;;;;6133923;23;20065;-83
2022/01/02 04:41:49;;;;;;;32.75;14.65;;;10.30;99.90;;;;;;6159250;23;20070;-83
2022/01/02 04:44:15;;;;;;;32.38;15.88;;;10.20;99.90;;;;;;6188160;23;20079;-85
2022/01/02 04:46:41;;;;;;;34.00;16.67;;;10.30;99.90;;;;;;6158948;23;20025;-84
2022/01/02 04:49:06;;;;;;;28.23;14.80;;;10.30;99.90;;;;;;6185772;23;20057;-84
2022/01/02 04:51:32;;;;;;;27.50;14.73;;;10.30;99.90;;;;;;6184130;23;20024;-84
2022/01/02 04:53:58;;;;;;;27.10;13.95;;;10.30;99.90;;;;;;6185728;23;20445;-85
2022/01/02 04:56:25;;;;;;;29.48;14.90;;;10.30;99.90;;;;;;6159804;23;20020;-84
2022/01/02 04:58:56;;;;;;;26.65;13.60;;;10.30;99.90;;;;;;6138297;23;20473;-84
2022/01/02 05:01:22;;;;;;;25.50;14.75;;;10.30;99.90;;;;;;6189967;23;20021;-84
2022/01/02 05:03:47;;;;;;;23.30;14.27;;;10.30;99.90;;;;;;6140392;23;20025;-84
2022/01/02 05:06:13;;;;;;;28.08;15.25;;;10.30;99.90;;;;;;6163864;23;20346;-84
2022/01/02 05:08:43;;;;;;;30.23;14.15;;;10.30;99.90;;;;;;6185293;23;20021;-85
2022/01/02 05:11:17;;;;;;;28.17;15.18;;;10.30;99.90;;;;;;6183482;23;20096;-84
2022/01/02 05:13:43;;;;;;;25.33;15.10;;;10.30;99.90;;;;;;6186237;23;20031;-85
2022/01/02 05:16:10;;;;;;;28.40;14.88;;;10.30;99.90;;;;;;6162690;23;20052;-84
2022/01/02 05:18:36;;;;;;;31.60;16.38;;;10.30;99.90;;;;;;6158655;23;20036;-84
2022/01/02 05:21:03;;;;;;;31.25;17.00;;;10.30;99.90;;;;;;6152503;23;20471;-84
2022/01/02 05:23:29;;;;;;;29.73;16.15;;;10.30;99.90;;;;;;6153609;23;20022;-84
2022/01/02 05:25:58;;;;;;;33.47;17.90;;;10.30;99.90;;;;;;6153748;23;20033;-84
2022/01/02 05:28:24;;;;;;;37.58;19.17;;;10.30;99.90;;;;;;6152571;23;20041;-84
2022/01/02 05:30:51;;;;;;;32.80;17.52;;;10.30;99.90;;;;;;6154153;23;20026;-84
2022/01/02 05:33:18;;;;;;;29.17;18.15;;;10.30;99.90;;;;;;6128776;23;20025;-84
2022/01/02 05:35:44;;;;;;;35.95;17.80;;;10.30;99.90;;;;;;6153793;23;20109;-85
2022/01/02 05:38:10;;;;;;;38.10;18.38;;;10.30;99.90;;;;;;6153270;23;20083;-84
2022/01/02 05:40:36;;;;;;;33.65;18.08;;;10.40;99.90;;;;;;6153341;23;20029;-84
2022/01/02 05:43:04;;;;;;;30.77;17.75;;;10.30;99.90;;;;;;6155881;23;20350;-85
2022/01/02 05:45:31;;;;;;;39.20;19.00;;;10.40;99.90;;;;;;6157455;23;20101;-85
2022/01/02 05:47:56;;;;;;;37.55;19.25;;;10.40;99.90;;;;;;6159705;23;20022;-83
2022/01/02 05:50:23;;;;;;;42.70;20.20;;;10.40;99.90;;;;;;6161553;23;20084;-83
2022/01/02 05:52:49;;;;;;;41.13;21.02;;;10.40;99.90;;;;;;6155438;23;20022;-84
2022/01/02 05:55:15;;;;;;;46.75;21.55;;;10.40;99.90;;;;;;6104440;23;20029;-85
2022/01/02 05:57:41;;;;;;;39.90;20.48;;;10.40;99.90;;;;;;6103834;23;20354;-84
2022/01/02 06:00:08;;;;;;;37.80;18.70;;;10.40;99.90;;;;;;6152934;23;20026;-85
2022/01/02 06:02:34;;;;;;;42.03;18.30;;;10.40;99.90;;;;;;6153317;23;20017;-84
2022/01/02 06:05:08;;;;;;;38.97;17.73;;;10.40;99.90;;;;;;6152633;23;20472;-84
2022/01/02 06:07:38;;;;;;;37.17;17.73;;;10.40;99.90;;;;;;6128768;23;20072;-84
2022/01/02 06:10:05;;;;;;;34.55;16.50;;;10.40;99.90;;;;;;6127698;23;20253;-84
2022/01/02 06:12:31;;;;;;;34.00;17.15;;;10.40;99.90;;;;;;6152387;23;20406;-83
2022/01/02 06:14:57;;;;;;;31.02;15.00;;;10.40;99.90;;;;;;6154992;23;20018;-83
2022/01/02 06:17:24;;;;;;;40.03;17.13;;;10.50;99.90;;;;;;6155310;23;20513;-84
2022/01/02 06:19:50;;;;;;;35.33;15.40;;;10.50;99.90;;;;;;6154840;23;20029;-83
2022/01/02 06:22:16;;;;;;;38.60;14.73;;;10.50;99.90;;;;;;6155329;23;20025;-83
2022/01/02 06:24:42;;;;;;;35.03;14.13;;;10.50;99.90;;;;;;6153191;23;20021;-83
2022/01/02 06:27:07;;;;;;;36.28;13.85;;;10.50;99.90;;;;;;6153616;23;20025;-84
2022/01/02 06:29:33;;;;;;;34.25;14.80;;;10.50;99.90;;;;;;6129728;23;20477;-84
2022/01/02 06:32:00;;;;;;;32.83;14.40;;;10.50;99.90;;;;;;6160264;23;20088;-83
2022/01/02 06:34:25;;;;;;;30.30;13.77;;;10.50;99.90;;;;;;6162201;23;20025;-84
2022/01/02 06:36:51;;;;;;;24.95;12.90;;;10.50;99.90;;;;;;6152806;23;20028;-83
2022/01/02 06:39:26;;;;;;;27.95;14.32;;;10.60;99.90;;;;;;6151600;23;20442;-84
2022/01/02 06:41:52;;;;;;;29.85;14.93;;;10.50;99.90;;;;;;6152785;23;20021;-84
2022/01/02 06:44:18;;;;;;;29.35;14.68;;;10.50;99.90;;;;;;6128281;23;20105;-84
2022/01/02 06:46:44;;;;;;;26.40;14.32;;;10.60;99.90;;;;;;6154825;23;20021;-84
2022/01/02 06:49:11;;;;;;;29.52;14.20;;;10.50;99.90;;;;;;6103813;23;20029;-84
2022/01/02 06:51:37;;;;;;;32.78;15.75;;;10.50;99.90;;;;;;6152663;23;20032;-84
2022/01/02 06:54:03;;;;;;;26.65;13.25;;;10.50;99.90;;;;;;6154579;23;20037;-84
2022/01/02 06:56:29;;;;;;;22.65;11.32;;;10.60;99.90;;;;;;6127670;23;20485;-85
2022/01/02 06:59:03;;;;;;;26.70;12.18;;;10.60;99.90;;;;;;6152164;23;20025;-85
2022/01/02 07:01:30;;;;;;;24.90;12.20;;;10.60;99.90;;;;;;6152019;23;20064;-85
2022/01/02 07:03:56;;;;;;;29.08;12.35;;;10.60;99.90;;;;;;6152654;23;20032;-85
2022/01/02 07:06:23;;;;;;;25.30;12.63;;;10.60;99.90;;;;;;6127858;23;20022;-84
2022/01/02 07:08:49;;;;;;;26.35;12.88;;;10.60;99.90;;;;;;6154540;23;20086;-85
2022/01/02 07:11:15;;;;;;;25.65;12.15;;;10.60;99.90;;;;;;6153353;23;20022;-85
2022/01/02 07:13:50;;;;;;;;;;;10.60;99.90;;;;;;6154398;23;20536;-85
2022/01/02 07:16:15;;;;;;;23.63;10.65;;;10.60;99.90;;;;;;6158076;23;19920;-85
2022/01/02 07:18:41;;;;;;;30.33;11.27;;;10.60;99.90;;;;;;6157371;23;20060;-84
2022/01/02 07:21:07;;;;;;;23.75;10.23;;;10.60;99.90;;;;;;6189386;23;20142;-86
2022/01/02 07:23:33;;;;;;;27.67;11.25;;;10.60;99.90;;;;;;6160214;23;20110;-84
2022/01/02 07:26:01;;;;;;;22.13;8.73;;;10.60;99.90;;;;;;6133629;23;20087;-84
2022/01/02 07:28:29;;;;;;;20.60;8.75;;;10.70;99.90;;;;;;6158712;23;20079;-84
2022/01/02 07:30:55;;;;;;;20.55;8.82;;;10.70;99.90;;;;;;6184656;23;20025;-84
2022/01/02 07:33:22;;;;;;;23.40;8.38;;;10.70;99.90;;;;;;6159622;23;20025;-84
2022/01/02 07:35:47;;;;;;;19.10;9.30;;;10.80;99.90;;;;;;6186482;23;20028;-85
2022/01/02 07:38:13;;;;;;;21.70;7.82;;;10.80;99.90;;;;;;6186603;23;20025;-84
2022/01/02 07:40:39;;;;;;;17.17;6.82;;;10.80;99.90;;;;;;6158691;23;20036;-84
2022/01/02 07:43:05;;;;;;;22.83;6.75;;;10.80;99.90;;;;;;6135088;23;20017;-85
2022/01/02 07:45:47;;;;;;;18.25;6.55;;;10.80;99.90;;;;;;6159576;23;20025;-84
2022/01/02 07:48:13;;;;;;;18.45;6.45;;;10.80;99.90;;;;;;6111542;23;20025;-85
2022/01/02 07:50:38;;;;;;;23.38;7.03;;;10.80;99.90;;;;;;6189269;23;20025;-85
2022/01/02 07:53:04;;;;;;;24.65;8.40;;;10.80;99.90;;;;;;6186089;23;20025;-85
2022/01/02 07:55:30;;;;;;;26.45;9.15;;;10.70;99.90;;;;;;6159179;23;20029;-84
2022/01/02 07:57:56;;;;;;;30.13;10.10;;;10.60;99.90;;;;;;6158327;23;20348;-85
2022/01/02 08:00:21;;;;;;;25.77;10.35;;;10.60;99.90;;;;;;6185760;23;20338;-84
2022/01/02 08:02:47;;;;;;;28.85;10.18;;;10.60;99.90;;;;;;6160831;23;20025;-84
2022/01/02 08:05:14;;;;;;;21.55;9.80;;;10.50;99.90;;;;;;6191435;23;20067;-84
2022/01/02 08:07:40;;;;;;;22.30;10.90;;;10.50;99.90;;;;;;6166708;23;20028;-85
2022/01/02 08:10:07;;;;;;;17.67;9.10;;;10.50;99.90;;;;;;6191180;23;20029;-83
2022/01/02 08:12:32;;;;;;;18.63;8.63;;;10.50;99.90;;;;;;6159448;23;20473;-84
2022/01/02 08:14:58;;;;;;;14.00;5.88;;;10.50;99.90;;;;;;6186276;23;20023;-84
2022/01/02 08:17:26;;;;;;;18.77;5.40;;;10.50;99.90;;;;;;6158538;23;20017;-85
2022/01/02 08:19:52;;;;;;;10.20;4.97;;;10.50;99.90;;;;;;6160105;23;20440;-86
2022/01/02 08:22:18;;;;;;;13.75;5.35;;;10.50;99.90;;;;;;6190280;23;20025;-84
2022/01/02 08:24:43;;;;;;;14.93;5.93;;;10.60;99.90;;;;;;6187210;23;20029;-84
2022/01/02 08:27:15;;;;;;;11.95;5.35;;;10.60;99.90;;;;;;6134364;23;20446;-84
2022/01/02 08:29:41;;;;;;;17.90;5.63;;;10.60;99.90;;;;;;6158230;23;20040;-84
2022/01/02 08:32:07;;;;;;;10.13;6.25;;;10.60;99.90;;;;;;6134504;23;20017;-84
2022/01/02 08:34:34;;;;;;;16.40;6.43;;;10.60;99.90;;;;;;6185607;23;20349;-85
2022/01/02 08:37:03;;;;;;;13.43;5.32;;;10.70;99.90;;;;;;6134555;23;20024;-84
2022/01/02 08:39:30;;;;;;;10.48;4.60;;;10.70;99.90;;;;;;6134773;23;20021;-84
2022/01/02 08:41:56;;;;;;;10.43;4.72;;;10.70;99.90;;;;;;6159454;23;20075;-85
2022/01/02 08:44:22;;;;;;;11.32;5.07;;;10.70;99.90;;;;;;6094418;23;20026;-85
2022/01/02 08:46:50;;;;;;;12.77;5.38;;;10.70;99.90;;;;;;6070801;23;20030;-85
2022/01/02 08:49:20;;;;;;;17.55;6.47;;;10.70;99.90;;;;;;6046999;23;20049;-86
2022/01/02 08:51:46;;;;;;;12.38;6.75;;;10.80;99.90;;;;;;6071471;23;20053;-85
2022/01/02 08:54:12;;;;;;;15.00;6.85;;;10.70;99.90;;;;;;6072306;23;20340;-84
2022/01/02 08:56:38;;;;;;;17.85;7.82;;;10.80;99.90;;;;;;6074667;23;20026;-84
2022/01/02 08:59:04;;;;;;;19.13;7.65;;;10.70;99.90;;;;;;6100323;23;20033;-84
2022/01/02 09:01:30;;;;;;;18.33;7.57;;;10.70;99.90;;;;;;6053945;23;20054;-83
2022/01/02 09:03:56;;;;;;;18.55;7.72;;;10.70;99.90;;;;;;6070798;23;20100;-85
2022/01/02 09:06:30;;;;;;;18.42;7.93;;;10.70;99.90;;;;;;6070200;23;20019;-84
2022/01/02 09:08:56;;;;;;;15.88;7.68;;;10.70;99.90;;;;;;6093874;23;20026;-84
2022/01/02 09:11:24;;;;;;;16.73;7.38;;;10.70;99.90;;;;;;6069476;23;20050;-84
2022/01/02 09:13:50;;;;;;;16.88;7.50;;;10.70;99.90;;;;;;6069727;23;20466;-85
2022/01/02 09:16:16;;;;;;;16.42;7.15;;;10.80;99.90;;;;;;6147325;23;20424;-85
2022/01/02 09:18:43;;;;;;;14.23;6.15;;;10.80;99.90;;;;;;6184787;23;20060;-84
2022/01/02 09:21:33;;;;;;;16.95;6.45;;;10.70;99.90;;;;;;6178226;23;20036;-86
2022/01/02 09:24:08;;;;;;;12.43;5.82;;;10.70;99.90;;;;;;6099751;23;20022;-84
2022/01/02 09:26:34;;;;;;;9.95;5.82;;;10.70;99.90;;;;;;6098260;23;20651;-85
2022/01/02 09:29:00;;;;;;;9.52;5.35;;;10.80;99.90;;;;;;6123150;23;20057;-85
2022/01/02 09:31:27;;;;;;;10.32;5.70;;;10.80;99.90;;;;;;6074813;23;20033;-85
2022/01/02 09:33:53;;;;;;;10.13;6.47;;;10.70;99.90;;;;;;6122681;23;20049;-84
2022/01/02 09:36:18;;;;;;;10.80;5.43;;;10.70;99.90;;;;;;6098788;23;20792;-85
2022/01/02 09:38:44;;;;;;;7.88;5.28;;;10.80;99.90;;;;;;6123300;23;20529;-85
2022/01/02 09:41:10;;;;;;;8.55;6.32;;;10.80;99.90;;;;;;6099408;23;20026;-85
2022/01/02 09:43:47;;;;;;;13.77;7.03;;;10.80;99.90;;;;;;6102445;23;20022;-85
2022/01/02 09:46:32;;;;;;;8.15;5.80;;;10.80;99.90;;;;;;6105912;23;20053;-85
2022/01/02 09:49:01;;;;;;;10.85;6.32;;;10.80;99.90;;;;;;6083655;23;20018;-85
2022/01/02 09:51:28;;;;;;;12.23;6.65;;;10.80;99.90;;;;;;6098863;23;20076;-85
2022/01/02 09:53:55;;;;;;;11.93;5.97;;;10.80;99.90;;;;;;6099027;23;20021;-85
2022/01/02 09:56:30;;;;;;;9.88;5.30;;;10.80;99.90;;;;;;6102096;23;20032;-85
2022/01/02 09:58:56;;;;;;;10.02;6.90;;;10.80;99.90;;;;;;6074640;23;20485;-85
2022/01/02 10:01:24;;;;;;;10.43;5.57;;;10.80;99.90;;;;;;6098480;23;20061;-84
2022/01/02 10:03:55;;;;;;;7.60;5.45;;;10.80;99.90;;;;;;6098996;23;20018;-85
2022/01/02 10:06:48;;;;;;;10.35;6.45;;;10.80;99.90;;;;;;6097483;23;20026;-85
2022/01/02 10:09:16;;;;;;;11.35;6.57;;;10.70;99.90;;;;;;6121136;23;20022;-85
2022/01/02 10:11:42;;;;;;;9.77;5.90;;;10.70;99.90;;;;;;6098994;23;20029;-85
2022/01/02 10:14:31;;;;;;;12.18;6.10;;;10.70;99.90;;;;;;6074668;23;20096;-83
2022/01/02 10:16:59;;;;;;;11.10;7.68;;;10.60;99.90;;;;;;6040204;23;20026;-84
2022/01/02 10:19:29;;;;;;;11.75;7.80;;;10.60;99.90;;;;;;6062103;23;20023;-86
2022/01/02 10:21:59;;;;;;;15.18;8.98;;;10.60;99.90;;;;;;6121582;23;20096;-85
2022/01/02 10:24:28;;;;;;;16.85;9.25;;;10.60;99.90;;;;;;6123050;23;20026;-86
2022/01/02 10:27:17;;;;;;;15.07;9.43;;;10.60;99.90;;;;;;6123636;23;20029;-86
2022/01/02 10:30:03;;;;;;;18.35;11.25;;;10.60;99.90;;;;;;6074911;23;20025;-85
2022/01/02 10:32:41;;;;;;;17.63;9.53;;;10.60;99.90;;;;;;6103593;23;20022;-87
2022/01/02 10:35:13;;;;;;;21.48;10.48;;;10.60;99.90;;;;;;6131713;23;20032;-85
2022/01/02 10:37:44;;;;;;;20.98;11.15;;;10.60;99.90;;;;;;6106929;23;20057;-85
2022/01/02 10:40:38;;;;;;;21.17;10.48;;;10.60;99.90;;;;;;6078504;23;20026;-85
2022/01/02 10:43:24;;;;;;;28.90;11.10;;;10.60;99.90;;;;;;6097869;23;20018;-85
2022/01/02 10:45:51;;;;;;;21.48;10.30;;;10.60;99.90;;;;;;6098592;23;20105;-84
2022/01/02 10:48:29;;;;;;;20.50;10.15;;;10.60;99.90;;;;;;6143543;23;20073;-85
2022/01/02 10:51:01;;;;;;;21.00;9.43;;;10.70;99.90;;;;;;6153496;23;20027;-85
2022/01/02 10:53:28;;;;;;;25.50;9.77;;;10.70;99.90;;;;;;6153374;23;20032;-85
2022/01/02 10:55:54;;;;;;;24.90;8.55;;;10.70;99.90;;;;;;6152598;23;20099;-85
2022/01/02 10:58:20;;;;;;;26.40;8.70;;;10.70;99.90;;;;;;6154001;23;20017;-84
2022/01/02 11:00:47;;;;;;;29.33;8.95;;;10.70;99.90;;;;;;6106901;23;20500;-84
2022/01/02 11:03:13;;;;;;;22.05;6.70;;;10.70;99.90;;;;;;6157791;23;20025;-85
2022/01/02 11:05:39;;;;;;;22.95;6.93;;;10.80;99.90;;;;;;6158263;23;20052;-84
2022/01/02 11:08:06;;;;;;;22.25;6.28;;;10.70;99.90;;;;;;6158920;23;20025;-86
2022/01/02 11:10:35;;;;;;;27.15;8.63;;;10.80;99.90;;;;;;6181375;23;20453;-85
2022/01/02 11:13:06;;;;;;;18.25;5.50;;;10.90;99.90;;;;;;6181560;23;20028;-85
2022/01/02 11:15:33;;;;;;;23.40;7.50;;;10.90;99.90;;;;;;6155509;23;20026;-85
2022/01/02 11:17:59;;;;;;;20.73;5.88;;;11.00;99.90;;;;;;6158275;23;20033;-84
2022/01/02 11:20:32;;;;;;;26.58;6.18;;;11.00;99.90;;;;;;6156269;23;20522;-83
2022/01/02 11:23:24;;;;;;;20.40;6.22;;;11.00;99.90;;;;;;6106318;23;20033;-84
2022/01/02 11:26:34;;;;;;;33.03;6.47;;;11.10;99.90;;;;;;6156982;23;20346;-86
2022/01/02 11:29:00;;;;;;;20.63;5.57;;;11.10;99.90;;;;;;6133302;23;20021;-85
2022/01/02 11:31:43;;;;;;;22.05;4.85;;;11.10;99.90;;;;;;6160043;23;20030;-85
2022/01/02 11:34:44;;;;;;;23.05;5.82;;;11.20;99.90;;;;;;6139989;23;20017;-84
2022/01/02 11:37:12;;;;;;;21.98;5.65;;;11.20;99.90;;;;;;6158203;23;20587;-85
2022/01/02 11:39:55;;;;;;;27.08;5.70;;;11.20;99.90;;;;;;6158142;23;20052;-84
2022/01/02 11:42:38;;;;;;;22.33;4.57;;;11.20;99.90;;;;;;6158046;23;20084;-85
2022/01/02 11:45:06;;;;;;;21.45;6.45;;;11.30;99.90;;;;;;6156078;23;20028;-85
2022/01/02 11:47:45;;;;;;;23.67;5.55;;;11.20;99.90;;;;;;6155941;23;20025;-85
2022/01/02 11:50:39;;;;;;;27.70;6.13;;;11.20;99.90;;;;;;6156541;23;20018;-85
2022/01/02 11:53:13;;;;;;;18.05;4.65;;;11.20;99.90;;;;;;6130996;23;20029;-86
2022/01/02 11:55:49;;;;;;;24.85;5.90;;;11.20;99.90;;;;;;6157310;23;20473;-85
2022/01/02 11:58:37;;;;;;;23.83;5.40;;;11.20;99.90;;;;;;6131081;23;20025;-86
2022/01/02 12:01:04;;;;;;;34.55;6.55;;;11.10;99.90;;;;;;6155043;23;20064;-83
2022/01/02 12:03:41;;;;;;;26.83;6.53;;;11.10;99.90;;;;;;6156195;23;20026;-84
2022/01/02 12:06:24;;;;;;;22.67;5.63;;;11.10;99.90;;;;;;6156261;23;20115;-83
2022/01/02 12:08:55;;;;;;;27.60;6.05;;;11.20;99.90;;;;;;6156533;23;20168;-84
2022/01/02 12:11:42;;;;;;;20.13;5.15;;;11.20;99.90;;;;;;6156909;23;20100;-85
2022/01/02 12:14:18;;;;;;;23.52;6.15;;;11.20;99.90;;;;;;6159421;23;20489;-85
2022/01/02 12:16:52;;;;;;;26.30;5.90;;;11.10;99.90;;;;;;6136936;23;20089;-85
2022/01/02 12:19:18;;;;;;;27.85;5.97;;;11.20;99.90;;;;;;6138585;23;20052;-85
2022/01/02 12:22:15;;;;;;;25.88;4.60;;;11.20;99.90;;;;;;6136746;23;20021;-85
2022/01/02 12:24:42;;;;;;;24.20;4.45;;;11.10;99.90;;;;;;6152672;23;20021;-85
2022/01/02 12:27:17;;;;;;;18.40;5.40;;;11.10;99.90;;;;;;6135070;23;20357;-84
2022/01/02 12:30:05;;;;;;;19.42;4.65;;;11.10;99.90;;;;;;6184326;23;20358;-84
2022/01/02 12:32:31;;;;;;;21.08;6.13;;;11.00;99.90;;;;;;6069466;23;20061;-85
2022/01/02 12:34:57;;;;;;;18.27;4.28;;;11.00;99.90;;;;;;6095562;23;20152;-84
2022/01/02 12:37:29;;;;;;;24.40;4.55;;;11.00;99.90;;;;;;6071776;23;20127;-84
2022/01/02 12:39:55;;;;;;;23.00;4.80;;;11.10;99.90;;;;;;6070169;23;20045;-85
2022/01/02 12:42:26;;;;;;;19.90;4.07;;;11.50;99.90;;;;;;6070021;23;20450;-87
2022/01/02 12:44:52;;;;;;;13.98;2.92;;;11.90;99.90;;;;;;6070075;23;20030;-85
2022/01/02 12:47:19;;;;;;;19.55;3.85;;;12.10;99.90;;;;;;6094204;23;20037;-85
2022/01/02 12:49:45;;;;;;;13.85;3.75;;;12.30;99.90;;;;;;6094467;23;20077;-84
2022/01/02 12:52:17;;;;;;;12.63;3.42;;;12.60;99.90;;;;;;6094425;23;20025;-85
2022/01/02 12:54:47;;;;;;;13.00;3.33;;;12.60;99.90;;;;;;6046185;23;20398;-85